createdAt,value
2019-04-06T00:01:05.005Z,54.72
2019-04-06T00:03:36.833Z,54.77
2019-04-06T00:06:10.703Z,54.79
2019-04-06T00:08:42.497Z,54.88
2019-04-06T00:11:14.394Z,54.95
2019-04-06T00:13:46.418Z,55.01
2019-04-06T00:16:18.180Z,55.12
2019-04-06T00:18:49.963Z,55.07
2019-04-06T00:21:21.927Z,55.16
2019-04-06T00:23:53.628Z,55.14
2019-04-06T00:26:25.762Z,55.55
2019-04-06T00:28:57.740Z,55.67
2019-04-06T00:31:51.332Z,55.66
2019-04-06T00:34:23.452Z,55.76
2019-04-06T00:36:55.086Z,55.53
2019-04-06T00:39:26.670Z,55.88
2019-04-06T00:41:58.242Z,55.88
2019-04-06T00:44:30.002Z,55.87
2019-04-06T00:47:01.756Z,56.16
2019-04-06T00:49:33.826Z,56.27
2019-04-06T00:52:05.927Z,56.29
2019-04-06T00:54:37.579Z,56.23
2019-04-06T00:57:09.136Z,56.33
2019-04-06T00:59:40.979Z,56.42
2019-04-06T01:02:12.573Z,56.48
2019-04-06T01:04:44.172Z,56.36
2019-04-06T01:07:16.629Z,56.49
2019-04-06T01:09:48.580Z,56.48
2019-04-06T01:12:20.986Z,56.51
2019-04-06T01:14:52.703Z,56.52
2019-04-06T01:17:24.790Z,56.72
2019-04-06T01:19:57.651Z,56.84
2019-04-06T01:22:29.345Z,56.97
2019-04-06T01:25:01.281Z,56.97
2019-04-06T01:27:33.111Z,57.18
2019-04-06T01:30:05.487Z,57.36
2019-04-06T01:32:37.150Z,57.47
2019-04-06T01:35:08.906Z,57.59
2019-04-06T01:37:40.406Z,57.62
2019-04-06T01:40:12.253Z,57.81
2019-04-06T01:42:44.023Z,57.85
2019-04-06T01:45:16.573Z,57.92
2019-04-06T01:47:49.762Z,57.96
2019-04-06T01:50:21.917Z,57.99
2019-04-06T01:52:53.870Z,58.04
2019-04-06T01:55:25.752Z,58.11
2019-04-06T01:57:57.485Z,58.06
2019-04-06T02:00:28.967Z,58.05
2019-04-06T02:03:00.853Z,58.01
2019-04-06T02:05:32.365Z,58.29
2019-04-06T02:08:04.051Z,58.17
2019-04-06T02:10:37.009Z,58.22
2019-04-06T02:13:08.642Z,58.45
2019-04-06T02:15:41.472Z,58.58
2019-04-06T02:18:13.313Z,58.76
2019-04-06T02:20:45.242Z,58.91
2019-04-06T02:23:17.061Z,59.06
2019-04-06T02:25:48.605Z,59.21
2019-04-06T02:28:20.204Z,59.26
2019-04-06T02:31:06.357Z,59.39
2019-04-06T02:34:09.569Z,59.49
2019-04-06T02:37:01.476Z,59.63
2019-04-06T02:39:38.743Z,59.84
2019-04-06T02:42:17.663Z,59.78
2019-04-06T02:44:49.612Z,59.70
2019-04-06T02:47:21.143Z,59.96
2019-04-06T02:49:52.674Z,60.28
2019-04-06T02:52:24.580Z,60.73
2019-04-06T02:54:56.167Z,60.67
2019-04-06T02:57:27.990Z,60.85
2019-04-06T02:59:59.980Z,60.76
2019-04-06T03:02:31.618Z,60.90
2019-04-06T03:05:03.480Z,60.93
2019-04-06T03:07:35.403Z,61.01
2019-04-06T03:10:07.633Z,61.19
2019-04-06T03:12:39.181Z,61.30
2019-04-06T03:15:11.015Z,61.46
2019-04-06T03:17:42.996Z,61.07
2019-04-06T03:20:14.638Z,61.03
2019-04-06T03:22:46.608Z,61.18
2019-04-06T03:25:19.183Z,61.31
2019-04-06T03:27:50.769Z,61.56
2019-04-06T03:30:22.520Z,61.53
2019-04-06T03:32:54.512Z,61.78
2019-04-06T03:35:26.456Z,61.73
2019-04-06T03:37:59.320Z,61.73
2019-04-06T03:40:31.262Z,61.99
2019-04-06T03:43:03.305Z,61.92
2019-04-06T03:45:35.260Z,61.88
2019-04-06T03:48:06.921Z,62.04
2019-04-06T03:50:38.777Z,62.06
2019-04-06T03:53:10.436Z,62.27
2019-04-06T03:55:42.809Z,62.24
2019-04-06T03:58:14.490Z,62.39
2019-04-06T04:00:46.227Z,62.35
2019-04-06T04:03:18.001Z,62.80
2019-04-06T04:05:49.552Z,62.51
2019-04-06T04:08:21.874Z,62.62
2019-04-06T04:10:53.919Z,62.30
2019-04-06T04:13:25.638Z,62.50
2019-04-06T04:15:58.182Z,62.53
2019-04-06T04:18:29.865Z,62.54
2019-04-06T04:21:02.015Z,62.67
2019-04-06T04:23:34.263Z,62.69
2019-04-06T04:26:05.928Z,62.48
2019-04-06T04:28:39.317Z,62.84
2019-04-06T04:31:10.973Z,63.13
2019-04-06T04:33:42.730Z,63.33
2019-04-06T04:36:17.329Z,63.18
2019-04-06T04:38:48.988Z,63.05
2019-04-06T04:41:20.516Z,63.10
2019-04-06T04:43:52.734Z,62.88
2019-04-06T04:46:24.907Z,62.93
2019-04-06T04:48:56.679Z,62.78
2019-04-06T04:51:28.386Z,62.86
2019-04-06T04:54:01.133Z,62.87
2019-04-06T04:56:33.445Z,62.71
2019-04-06T04:59:05.996Z,62.39
2019-04-06T05:01:37.686Z,62.48
2019-04-06T05:04:09.442Z,62.51
2019-04-06T05:06:41.134Z,62.66
2019-04-06T05:09:12.772Z,62.80
2019-04-06T05:11:44.438Z,63.06
2019-04-06T05:14:51.514Z,62.95
2019-04-06T05:17:24.408Z,63.10
2019-04-06T05:19:57.622Z,63.05
2019-04-06T05:22:30.495Z,63.00
2019-04-06T05:25:02.440Z,63.11
2019-04-06T05:27:34.260Z,63.07
2019-04-06T05:30:08.299Z,63.07
2019-04-06T05:32:39.882Z,63.06
2019-04-06T05:35:13.318Z,63.89
2019-04-06T05:37:44.954Z,64.18
2019-04-06T05:40:16.951Z,64.02
2019-04-06T05:42:48.959Z,64.34
2019-04-06T05:45:21.239Z,63.56
2019-04-06T05:47:53.930Z,63.53
2019-04-06T05:50:25.533Z,63.93
2019-04-06T05:52:58.086Z,63.30
2019-04-06T05:55:29.616Z,63.03
2019-04-06T05:58:04.421Z,62.74
2019-04-06T06:00:35.229Z,62.50
2019-04-06T06:03:08.610Z,62.43
2019-04-06T06:05:41.162Z,62.25
2019-04-06T06:08:12.834Z,62.04
2019-04-06T06:10:44.658Z,61.81
2019-04-06T06:13:16.528Z,62.13
2019-04-06T06:15:49.006Z,61.89
2019-04-06T06:18:26.324Z,61.26
2019-04-06T06:20:54.018Z,61.53
2019-04-06T06:23:26.569Z,61.02
2019-04-06T06:25:58.349Z,60.95
2019-04-06T06:28:29.947Z,61.04
2019-04-06T06:31:03.960Z,60.87
2019-04-06T06:33:35.662Z,61.30
2019-04-06T06:36:07.541Z,61.42
2019-04-06T06:38:39.969Z,60.89
2019-04-06T06:41:11.579Z,60.70
2019-04-06T06:43:45.259Z,60.78
2019-04-06T06:46:17.095Z,60.81
2019-04-06T06:48:49.017Z,60.87
2019-04-06T06:51:20.896Z,60.36
2019-04-06T06:53:52.752Z,60.36
2019-04-06T06:56:24.805Z,60.77
2019-04-06T06:58:56.841Z,60.66
2019-04-06T07:01:28.543Z,60.04
2019-04-06T07:04:01.188Z,59.74
2019-04-06T07:06:33.043Z,59.59
2019-04-06T07:09:06.124Z,59.04
2019-04-06T07:11:37.734Z,59.36
2019-04-06T07:14:09.575Z,58.75
2019-04-06T07:16:42.212Z,58.79
2019-04-06T07:19:14.043Z,58.51
2019-04-06T07:21:46.661Z,59.38
2019-04-06T07:24:18.328Z,59.03
2019-04-06T07:26:49.938Z,59.21
2019-04-06T07:29:22.648Z,58.96
2019-04-06T07:31:54.866Z,58.47
2019-04-06T07:34:26.483Z,58.28
2019-04-06T07:36:58.202Z,58.02
2019-04-06T07:39:30.143Z,58.03
2019-04-06T07:42:02.322Z,57.99
2019-04-06T07:44:34.904Z,58.15
2019-04-06T07:47:06.616Z,57.73
2019-04-06T07:49:38.481Z,57.62
2019-04-06T07:52:10.302Z,57.90
2019-04-06T07:54:41.960Z,57.59
2019-04-06T07:57:14.876Z,57.28
2019-04-06T07:59:46.899Z,57.01
2019-04-06T08:02:18.560Z,57.07
2019-04-06T08:04:50.300Z,57.06
2019-04-06T08:07:23.763Z,57.08
2019-04-06T08:09:55.512Z,56.71
2019-04-06T08:12:27.370Z,56.20
2019-04-06T08:14:58.988Z,56.17
2019-04-06T08:17:30.697Z,55.71
2019-04-06T08:20:04.501Z,55.99
2019-04-06T08:22:36.342Z,56.09
2019-04-06T08:25:08.294Z,56.18
2019-04-06T08:27:39.964Z,56.08
2019-04-06T08:30:13.283Z,56.56
2019-04-06T08:32:45.405Z,56.22
2019-04-06T08:35:25.442Z,56.12
2019-04-06T08:37:51.756Z,55.93
2019-04-06T08:40:23.632Z,56.24
2019-04-06T08:42:55.641Z,56.26
2019-04-06T08:45:27.324Z,55.99
2019-04-06T08:48:00.206Z,56.10
2019-04-06T08:50:32.410Z,55.77
2019-04-06T08:53:03.976Z,55.58
2019-04-06T08:55:35.814Z,55.15
2019-04-06T08:58:07.440Z,55.00
2019-04-06T09:00:39.227Z,54.84
2019-04-06T09:03:10.956Z,54.87
2019-04-06T09:05:43.407Z,54.33
2019-04-06T09:08:15.079Z,54.33
2019-04-06T09:10:48.130Z,54.85
2019-04-06T09:13:20.051Z,55.72
2019-04-06T09:15:52.057Z,55.04
2019-04-06T09:18:24.481Z,55.30
2019-04-06T09:20:56.458Z,55.72
2019-04-06T09:23:28.075Z,55.69
2019-04-06T09:26:01.270Z,56.13
2019-04-06T09:28:33.262Z,56.02
2019-04-06T09:31:07.074Z,54.76
2019-04-06T09:33:38.692Z,54.01
2019-04-06T09:36:10.288Z,53.72
2019-04-06T09:38:42.323Z,53.07
2019-04-06T09:41:14.097Z,52.64
2019-04-06T09:43:45.753Z,52.54
2019-04-06T09:46:34.967Z,52.18
2019-04-06T09:49:40.811Z,51.30
2019-04-06T09:52:31.450Z,51.47
2019-04-06T09:55:22.125Z,51.69
2019-04-06T09:58:09.525Z,51.14
2019-04-06T10:00:47.873Z,50.82
2019-04-06T10:03:41.302Z,50.28
2019-04-06T10:06:21.659Z,49.52
2019-04-06T10:09:12.177Z,49.67
2019-04-06T10:12:04.546Z,49.54
2019-04-06T10:15:01.505Z,49.39
2019-04-06T10:17:56.236Z,49.70
2019-04-06T10:20:45.815Z,49.52
2019-04-06T10:23:34.975Z,49.39
2019-04-06T10:26:38.489Z,49.41
2019-04-06T10:29:47.974Z,49.51
2019-04-06T10:32:28.701Z,49.93
2019-04-06T10:35:16.588Z,50.30
2019-04-06T10:37:54.931Z,50.28
2019-04-06T10:40:33.465Z,49.93
2019-04-06T10:43:24.995Z,50.09
2019-04-06T10:46:21.532Z,49.50
2019-04-06T10:49:05.072Z,48.87
2019-04-06T10:51:56.313Z,48.02
2019-04-06T10:54:45.960Z,47.61
2019-04-06T10:57:29.899Z,47.63
2019-04-06T11:00:26.422Z,47.04
2019-04-06T11:03:15.799Z,47.04
2019-04-06T11:06:06.396Z,47.08
2019-04-06T11:09:00.124Z,47.14
2019-04-06T11:11:57.298Z,47.22
2019-04-06T11:14:54.301Z,47.22
2019-04-06T11:17:40.702Z,47.10
2019-04-06T11:20:46.691Z,47.31
2019-04-06T11:23:39.482Z,47.59
2019-04-06T11:26:20.287Z,47.49
2019-04-06T11:29:16.934Z,47.29
2019-04-06T11:32:07.277Z,47.98
2019-04-06T11:35:01.272Z,48.23
2019-04-06T11:37:50.080Z,48.46
2019-04-06T11:40:44.150Z,48.63
2019-04-06T11:43:44.718Z,48.50
2019-04-06T11:46:35.177Z,48.28
2019-04-06T11:49:30.354Z,48.33
2019-04-06T11:52:36.048Z,48.88
2019-04-06T11:55:32.823Z,49.48
2019-04-06T11:58:29.565Z,49.79
2019-04-06T12:01:08.164Z,50.29
2019-04-06T12:03:57.536Z,50.68
2019-04-06T12:06:47.003Z,51.32
2019-04-06T12:09:43.777Z,51.31
2019-04-06T12:12:33.244Z,51.75
2019-04-06T12:15:32.309Z,52.69
2019-04-06T12:18:26.409Z,52.76
2019-04-06T12:21:15.741Z,56.97
2019-04-06T12:24:03.311Z,59.33
2019-04-06T12:26:45.249Z,59.38
2019-04-06T12:29:29.638Z,58.85
2019-04-06T12:32:38.896Z,59.40
2019-04-06T12:35:34.383Z,59.88
2019-04-06T12:38:28.173Z,59.19
2019-04-06T12:41:14.287Z,67.55
2019-04-06T12:43:57.865Z,68.65
2019-04-06T12:46:47.452Z,69.31
2019-04-06T12:49:44.113Z,68.14
2019-04-06T12:52:28.586Z,69.10
2019-04-06T12:55:09.506Z,67.72
2019-04-06T12:58:09.958Z,69.00
2019-04-06T13:01:00.653Z,69.08
2019-04-06T13:04:06.979Z,72.77
2019-04-06T13:06:54.474Z,76.80
2019-04-06T13:09:47.952Z,80.81
2019-04-06T13:12:54.128Z,82.52
2019-04-06T13:15:50.689Z,84.00
2019-04-06T13:18:47.477Z,84.37
2019-04-06T13:21:32.064Z,84.99
2019-04-06T13:24:12.476Z,85.07
2019-04-06T13:27:00.587Z,85.37
2019-04-06T13:29:54.462Z,85.63
2019-04-06T13:32:47.945Z,85.89
2019-04-06T13:35:41.413Z,86.51
2019-04-06T13:38:38.019Z,87.02
2019-04-06T13:41:34.593Z,88.18
2019-04-06T13:44:31.075Z,88.35
2019-04-06T13:47:21.745Z,88.24
2019-04-06T13:50:10.264Z,88.18
2019-04-06T13:53:07.081Z,87.95
2019-04-06T13:56:15.912Z,88.06
2019-04-06T13:59:14.008Z,89.78
2019-04-06T14:02:01.782Z,90.35
2019-04-06T14:05:04.575Z,89.49
2019-04-06T14:07:54.705Z,91.16
2019-04-06T14:10:58.752Z,92.77
2019-04-06T14:13:43.049Z,93.88
2019-04-06T14:16:35.225Z,94.06
2019-04-06T14:19:24.959Z,93.64
2019-04-06T14:22:06.862Z,93.00
2019-04-06T14:24:51.477Z,93.92
2019-04-06T14:27:44.863Z,94.98
2019-04-06T14:30:24.639Z,95.11
2019-04-06T14:33:21.726Z,95.59
2019-04-06T14:36:10.449Z,95.59
2019-04-06T14:38:59.167Z,95.53
2019-04-06T14:41:44.974Z,95.71
2019-04-06T14:44:38.061Z,95.58
2019-04-06T14:47:33.302Z,96.06
2019-04-06T14:50:34.658Z,95.87
2019-04-06T14:53:27.364Z,96.17
2019-04-06T14:56:20.702Z,96.55
2019-04-06T14:59:12.825Z,96.87
2019-04-06T15:02:00.137Z,96.84
2019-04-06T15:04:41.638Z,96.91
2019-04-06T15:07:31.530Z,96.73
2019-04-06T15:10:34.877Z,96.43
2019-04-06T15:13:23.804Z,96.50
2019-04-06T15:16:13.709Z,96.34
2019-04-06T15:19:11.486Z,95.99
2019-04-06T15:22:02.067Z,95.90
2019-04-06T15:25:07.713Z,96.08
2019-04-06T15:27:57.416Z,96.24
2019-04-06T15:30:47.500Z,96.63
2019-04-06T15:33:46.037Z,97.18
2019-04-06T15:36:37.564Z,97.55
2019-04-06T15:39:15.975Z,97.50
2019-04-06T15:41:58.490Z,97.65
2019-04-06T15:44:41.340Z,97.13
2019-04-06T15:47:40.972Z,96.60
2019-04-06T15:50:37.442Z,96.45
2019-04-06T15:53:31.290Z,96.18
2019-04-06T15:56:16.979Z,96.12
2019-04-06T15:59:08.283Z,95.99
2019-04-06T16:02:03.194Z,95.97
2019-04-06T16:04:55.120Z,95.70
2019-04-06T16:07:52.625Z,95.55
2019-04-06T16:10:36.102Z,95.52
2019-04-06T16:13:26.877Z,95.29
2019-04-06T16:16:03.888Z,95.21
2019-04-06T16:18:50.808Z,95.04
2019-04-06T16:21:34.553Z,94.93
2019-04-06T16:24:17.112Z,94.85
2019-04-06T16:27:10.983Z,95.03
2019-04-06T16:29:51.412Z,95.32
2019-04-06T16:32:41.655Z,95.39
2019-04-06T16:35:25.681Z,95.47
2019-04-06T16:38:22.618Z,95.33
2019-04-06T16:41:16.775Z,95.21
2019-04-06T16:43:57.313Z,95.21
2019-04-06T16:46:50.931Z,95.47
2019-04-06T16:49:47.639Z,95.63
2019-04-06T16:52:44.696Z,95.57
2019-04-06T16:55:34.360Z,95.45
2019-04-06T16:58:24.164Z,95.42
2019-04-06T17:01:27.098Z,95.49
2019-04-06T17:04:17.405Z,95.55
2019-04-06T17:07:06.859Z,95.62
2019-04-06T17:09:55.251Z,95.61
2019-04-06T17:12:45.817Z,95.60
2019-04-06T17:15:35.132Z,95.63
2019-04-06T17:18:25.565Z,95.60
2019-04-06T17:21:19.288Z,95.60
2019-04-06T17:24:16.619Z,95.71
2019-04-06T17:27:21.138Z,95.77
2019-04-06T17:30:16.539Z,95.83
2019-04-06T17:32:59.494Z,95.77
2019-04-06T17:35:43.501Z,95.68
2019-04-06T17:38:30.254Z,95.65
2019-04-06T17:41:15.208Z,95.59
2019-04-06T17:43:55.854Z,95.76
2019-04-06T17:46:46.833Z,95.75
2019-04-06T17:49:27.084Z,95.68
2019-04-06T17:52:23.475Z,95.73
2019-04-06T17:55:18.208Z,95.98
2019-04-06T17:58:08.778Z,96.17
2019-04-06T18:01:01.048Z,96.63
2019-04-06T18:04:01.093Z,96.75
2019-04-06T18:06:42.515Z,96.73
2019-04-06T18:09:20.885Z,97.06
2019-04-06T18:12:29.986Z,97.44
2019-04-06T18:15:02.053Z,97.67
2019-04-06T18:17:35.304Z,97.67
2019-04-06T18:20:07.366Z,97.70
2019-04-06T18:22:39.131Z,97.76
2019-04-06T18:25:10.968Z,97.84
2019-04-06T18:27:42.936Z,97.75
2019-04-06T18:30:14.905Z,97.99
2019-04-06T18:32:59.953Z,98.03
2019-04-06T18:35:24.613Z,98.28
2019-04-06T18:38:19.035Z,97.54
2019-04-06T18:40:50.838Z,94.02
2019-04-06T18:43:23.438Z,94.11
2019-04-06T18:45:56.998Z,94.19
2019-04-06T18:48:29.983Z,94.44
2019-04-06T18:51:02.217Z,94.49
2019-04-06T18:53:34.334Z,94.39
2019-04-06T18:56:06.326Z,94.37
2019-04-06T18:58:40.569Z,94.60
2019-04-06T19:01:14.567Z,94.50
2019-04-06T19:03:46.133Z,94.51
2019-04-06T19:06:19.351Z,94.55
2019-04-06T19:08:51.262Z,94.64
2019-04-06T19:11:23.190Z,94.68
2019-04-06T19:13:55.511Z,94.81
2019-04-06T19:16:28.560Z,95.02
2019-04-06T19:19:00.185Z,95.26
2019-04-06T19:21:34.371Z,95.61
2019-04-06T19:24:06.159Z,95.86
2019-04-06T19:26:38.701Z,96.35
2019-04-06T19:29:11.699Z,96.72
2019-04-06T19:31:44.361Z,96.90
2019-04-06T19:34:15.960Z,96.85
2019-04-06T19:36:47.542Z,96.99
2019-04-06T19:39:19.806Z,97.09
2019-04-06T19:41:51.615Z,97.01
2019-04-06T19:44:23.331Z,97.14
2019-04-06T19:46:55.109Z,95.92
2019-04-06T19:49:27.428Z,93.07
2019-04-06T19:51:58.997Z,91.89
2019-04-06T19:54:31.260Z,91.38
2019-04-06T19:57:03.213Z,91.90
2019-04-06T19:59:36.174Z,91.68
2019-04-06T20:02:09.422Z,91.08
2019-04-06T20:04:41.325Z,90.07
2019-04-06T20:07:13.021Z,89.62
2019-04-06T20:09:45.156Z,89.06
2019-04-06T20:12:16.952Z,88.37
2019-04-06T20:14:49.110Z,86.11
2019-04-06T20:17:20.904Z,86.11
2019-04-06T20:19:54.503Z,85.96
2019-04-06T20:22:26.019Z,86.25
2019-04-06T20:24:57.751Z,85.75
2019-04-06T20:27:29.577Z,85.49
2019-04-06T20:30:01.527Z,84.98
2019-04-06T20:32:33.756Z,85.22
2019-04-06T20:35:07.015Z,85.22
2019-04-06T20:37:38.617Z,85.04
2019-04-06T20:40:10.593Z,84.99
2019-04-06T20:42:42.331Z,84.36
2019-04-06T20:45:13.975Z,84.16
2019-04-06T20:47:45.686Z,84.26
2019-04-06T20:50:17.894Z,84.53
2019-04-06T20:52:50.763Z,84.58
2019-04-06T20:55:22.671Z,84.99
2019-04-06T20:57:56.117Z,85.29
2019-04-06T21:00:28.518Z,85.23
2019-04-06T21:03:01.083Z,85.49
2019-04-06T21:05:34.592Z,85.80
2019-04-06T21:08:07.052Z,86.48
2019-04-06T21:10:38.867Z,87.17
2019-04-06T21:13:11.197Z,87.92
2019-04-06T21:15:43.637Z,88.15
2019-04-06T21:18:16.595Z,88.61
2019-04-06T21:20:48.723Z,89.31
2019-04-06T21:23:20.716Z,89.84
2019-04-06T21:25:52.865Z,90.22
2019-04-06T21:28:24.704Z,90.69
2019-04-06T21:30:57.069Z,90.72
2019-04-06T21:33:29.660Z,90.64
2019-04-06T21:36:01.660Z,91.06
2019-04-06T21:38:33.330Z,91.34
2019-04-06T21:41:06.255Z,91.73
2019-04-06T21:43:38.021Z,91.95
2019-04-06T21:46:10.595Z,92.38
2019-04-06T21:48:43.813Z,92.49
2019-04-06T21:51:15.825Z,93.38
2019-04-06T21:53:48.234Z,93.38
2019-04-06T21:56:20.117Z,93.39
2019-04-06T21:58:53.127Z,93.28
2019-04-06T22:01:25.425Z,93.16
2019-04-06T22:03:58.616Z,93.24
2019-04-06T22:06:30.516Z,93.00
2019-04-06T22:09:02.761Z,93.02
2019-04-06T22:11:37.099Z,93.09
2019-04-06T22:14:09.299Z,92.98
2019-04-06T22:16:41.799Z,93.03
2019-04-06T22:19:13.333Z,92.99
2019-04-06T22:21:45.275Z,93.50
2019-04-06T22:24:18.643Z,93.89
2019-04-06T22:26:50.699Z,94.28
2019-04-06T22:29:22.825Z,94.43
2019-04-06T22:31:56.144Z,94.50
2019-04-06T22:34:36.334Z,94.53
2019-04-06T22:37:01.385Z,94.16
2019-04-06T22:39:34.012Z,93.90
2019-04-06T22:42:06.133Z,93.49
2019-04-06T22:44:38.215Z,93.36
2019-04-06T22:47:10.237Z,93.41
2019-04-06T22:49:43.267Z,93.46
2019-04-06T22:52:15.631Z,93.32
2019-04-06T22:54:47.735Z,93.44
2019-04-06T22:57:19.295Z,93.09
2019-04-06T22:59:50.887Z,92.97
2019-04-06T23:02:22.671Z,92.83
2019-04-06T23:05:16.203Z,92.76
2019-04-06T23:07:48.418Z,92.67
2019-04-06T23:10:20.264Z,92.61
2019-04-06T23:12:52.136Z,92.84
2019-04-06T23:15:24.524Z,92.92
2019-04-06T23:17:56.377Z,92.95
2019-04-06T23:20:29.906Z,92.92
2019-04-06T23:23:02.248Z,92.76
2019-04-06T23:25:34.079Z,92.42
2019-04-06T23:28:05.923Z,92.27
2019-04-06T23:30:38.487Z,92.19
2019-04-06T23:33:10.042Z,91.98
2019-04-06T23:35:42.280Z,91.82
2019-04-06T23:38:15.315Z,91.69
2019-04-06T23:40:47.164Z,91.63
2019-04-06T23:43:19.839Z,91.62
2019-04-06T23:45:51.592Z,91.56
2019-04-06T23:48:24.544Z,91.41
2019-04-06T23:50:57.345Z,91.23
2019-04-06T23:53:30.465Z,90.89
2019-04-06T23:56:02.690Z,91.00
2019-04-06T23:58:35.204Z,90.77
